createdAt,value
2019-03-22T14:37:56.393Z,29.84
2019-03-22T14:40:24.658Z,29.36
2019-03-22T14:42:52.958Z,30.05
2019-03-22T14:45:21.227Z,28.40
2019-03-22T14:47:49.690Z,28.84
2019-03-22T14:55:07.316Z,28.87
2019-03-22T15:21:50.210Z,32.01
2019-03-22T15:27:01.065Z,30.71
2019-03-22T15:32:12.095Z,28.25
2019-03-22T15:37:25.906Z,30.94
2019-03-22T15:42:29.318Z,30.18
2019-03-22T15:47:32.657Z,32.54
2019-03-22T15:52:35.992Z,31.04
2019-03-22T15:57:39.331Z,32.48
2019-03-22T16:02:42.684Z,32.77
2019-03-22T16:07:46.046Z,31.41
2019-03-22T16:12:49.378Z,33.06
2019-03-22T16:17:52.721Z,33.08
2019-03-22T16:22:56.341Z,34.65
2019-03-22T16:27:59.732Z,35.64
2019-03-22T16:33:03.078Z,36.48
2019-03-22T16:38:06.433Z,36.66
2019-03-22T16:43:09.786Z,37.51
2019-03-22T16:48:13.147Z,38.68
2019-03-22T16:53:16.583Z,40.25
2019-03-22T16:58:19.900Z,39.29
2019-03-22T17:03:23.296Z,39.32
2019-03-22T17:08:26.693Z,40.15
2019-03-22T17:13:30.059Z,41.13
2019-03-22T17:18:33.412Z,41.55
2019-03-22T17:23:36.753Z,42.07
2019-03-22T17:28:40.161Z,44.20
2019-03-22T17:33:43.509Z,44.44
2019-03-22T17:38:46.853Z,45.27
2019-03-22T17:43:51.207Z,45.56
2019-03-22T17:48:54.547Z,46.11
2019-03-22T17:53:57.879Z,45.25
2019-03-22T17:59:01.284Z,48.58
2019-03-22T18:04:04.812Z,48.90
2019-03-22T18:09:08.247Z,48.90
2019-03-22T18:14:11.614Z,51.65
2019-03-22T18:19:14.977Z,52.04
2019-03-22T18:24:18.368Z,52.94
2019-03-22T18:29:21.783Z,50.66
2019-03-22T18:34:33.923Z,52.77
2019-03-22T18:39:30.406Z,51.45
2019-03-22T18:44:33.744Z,54.40
2019-03-22T18:49:37.095Z,54.15
2019-03-22T18:54:40.518Z,52.45
2019-03-22T18:59:43.878Z,53.75
2019-03-22T19:04:47.239Z,55.64
2019-03-22T19:09:50.607Z,54.50
2019-03-22T19:14:54.240Z,54.74
2019-03-22T19:19:57.628Z,55.07
2019-03-22T19:25:01.219Z,55.35
2019-03-22T19:30:08.468Z,56.45
2019-03-22T19:35:12.100Z,57.75
2019-03-22T19:40:16.128Z,56.82
2019-03-22T19:45:19.482Z,57.64
2019-03-22T19:50:22.908Z,58.60
2019-03-22T19:55:26.257Z,58.68
2019-03-22T20:00:29.638Z,58.23
2019-03-22T20:05:34.146Z,60.52
2019-03-22T20:10:37.608Z,60.39
2019-03-22T20:15:41.015Z,60.13
2019-03-22T20:20:44.480Z,61.16
2019-03-22T20:25:48.077Z,61.11
2019-03-22T20:30:51.435Z,61.94
2019-03-22T20:35:54.815Z,61.18
2019-03-22T20:40:58.170Z,61.27
2019-03-22T20:46:01.529Z,62.31
2019-03-22T20:51:04.945Z,62.59
2019-03-22T20:56:08.410Z,63.47
2019-03-22T21:01:11.828Z,63.34
2019-03-22T21:06:15.315Z,63.27
2019-03-22T21:11:18.684Z,63.58
2019-03-22T21:16:22.048Z,63.57
2019-03-22T21:21:35.719Z,63.63
2019-03-22T21:26:30.479Z,65.85
2019-03-22T21:31:34.080Z,66.74
2019-03-22T21:36:37.438Z,63.93
2019-03-22T21:41:40.781Z,64.52
2019-03-22T21:46:44.175Z,63.79
2019-03-22T21:51:47.522Z,64.22
2019-03-22T21:56:51.072Z,65.63
2019-03-22T22:01:54.421Z,65.85
2019-03-22T22:06:57.826Z,68.62
2019-03-22T22:12:01.151Z,66.04
2019-03-22T22:17:04.484Z,65.79
2019-03-22T22:22:07.830Z,67.33
2019-03-22T22:27:14.077Z,67.57
2019-03-22T22:32:16.387Z,66.11
2019-03-22T22:37:19.727Z,66.10
2019-03-22T22:42:23.077Z,67.53
2019-03-22T22:47:26.408Z,66.56
2019-03-22T22:52:29.802Z,66.45
2019-03-22T22:57:33.128Z,68.66
2019-03-22T23:02:36.460Z,70.26
2019-03-22T23:07:39.854Z,69.26
2019-03-22T23:12:43.744Z,69.55
2019-03-22T23:17:47.064Z,69.88
2019-03-22T23:22:50.403Z,71.34
2019-03-22T23:27:53.807Z,70.09
2019-03-22T23:32:57.086Z,68.46
2019-03-22T23:38:00.486Z,71.60
2019-03-22T23:43:03.819Z,69.46
2019-03-22T23:48:07.157Z,71.67
2019-03-22T23:53:10.504Z,69.85
2019-03-22T23:58:13.923Z,69.52
